sensor_id;sensor_type;location;lat;lon;timestamp;P1;durP1;ratioP1;P2;durP2;ratioP2
18568;SDS011;14780;48.316;-1.050;2023-11-21T00:00:26;2.25;;;1.30;;
18568;SDS011;14780;48.316;-1.050;2023-11-21T00:03:10;2.55;;;1.60;;
18568;SDS011;14780;48.316;-1.050;2023-11-21T00:05:58;3.10;;;1.42;;
18568;SDS011;14780;48.316;-1.050;2023-11-21T00:08:44;1.95;;;1.23;;
18568;SDS011;14780;48.316;-1.050;2023-11-21T00:11:29;2.72;;;1.45;;
18568;SDS011;14780;48.316;-1.050;2023-11-21T00:14:14;1.40;;;1.20;;
18568;SDS011;14780;48.316;-1.050;2023-11-21T00:16:59;1.80;;;1.20;;
18568;SDS011;14780;48.316;-1.050;2023-11-21T00:19:43;3.10;;;1.33;;
18568;SDS011;14780;48.316;-1.050;2023-11-21T00:22:28;3.25;;;1.20;;
18568;SDS011;14780;48.316;-1.050;2023-11-21T00:25:13;1.95;;;1.23;;
18568;SDS011;14780;48.316;-1.050;2023-11-21T00:27:58;1.70;;;1.17;;
18568;SDS011;14780;48.316;-1.050;2023-11-21T00:30:44;2.63;;;1.40;;
18568;SDS011;14780;48.316;-1.050;2023-11-21T00:33:29;1.48;;;1.13;;
18568;SDS011;14780;48.316;-1.050;2023-11-21T00:36:14;2.15;;;1.48;;
18568;SDS011;14780;48.316;-1.050;2023-11-21T00:38:58;1.97;;;1.20;;
18568;SDS011;14780;48.316;-1.050;2023-11-21T00:41:43;2.38;;;1.33;;
18568;SDS011;14780;48.316;-1.050;2023-11-21T00:44:28;1.58;;;1.10;;
18568;SDS011;14780;48.316;-1.050;2023-11-21T00:47:13;2.22;;;1.30;;
18568;SDS011;14780;48.316;-1.050;2023-11-21T00:49:58;1.88;;;1.40;;
18568;SDS011;14780;48.316;-1.050;2023-11-21T00:52:43;1.75;;;1.30;;
18568;SDS011;14780;48.316;-1.050;2023-11-21T00:55:27;2.30;;;1.38;;
18568;SDS011;14780;48.316;-1.050;2023-11-21T00:58:13;2.33;;;1.40;;
18568;SDS011;14780;48.316;-1.050;2023-11-21T01:00:58;1.75;;;1.50;;
18568;SDS011;14780;48.316;-1.050;2023-11-21T01:03:42;2.25;;;1.15;;
18568;SDS011;14780;48.316;-1.050;2023-11-21T01:06:30;2.67;;;1.47;;
18568;SDS011;14780;48.316;-1.050;2023-11-21T01:09:14;1.65;;;1.30;;
18568;SDS011;14780;48.316;-1.050;2023-11-21T01:12:01;1.15;;;1.05;;
18568;SDS011;14780;48.316;-1.050;2023-11-21T01:14:46;3.63;;;1.33;;
18568;SDS011;14780;48.316;-1.050;2023-11-21T01:17:31;2.20;;;1.20;;
18568;SDS011;14780;48.316;-1.050;2023-11-21T01:20:17;3.13;;;1.35;;
18568;SDS011;14780;48.316;-1.050;2023-11-21T01:23:02;1.70;;;1.10;;
18568;SDS011;14780;48.316;-1.050;2023-11-21T01:25:49;1.02;;;0.93;;
18568;SDS011;14780;48.316;-1.050;2023-11-21T01:28:35;2.72;;;1.33;;
18568;SDS011;14780;48.316;-1.050;2023-11-21T01:31:19;2.22;;;1.23;;
18568;SDS011;14780;48.316;-1.050;2023-11-21T01:34:04;1.63;;;1.13;;
18568;SDS011;14780;48.316;-1.050;2023-11-21T01:36:49;2.13;;;1.20;;
18568;SDS011;14780;48.316;-1.050;2023-11-21T01:39:33;1.55;;;1.13;;
18568;SDS011;14780;48.316;-1.050;2023-11-21T01:42:18;1.70;;;1.13;;
18568;SDS011;14780;48.316;-1.050;2023-11-21T01:45:03;2.88;;;1.48;;
18568;SDS011;14780;48.316;-1.050;2023-11-21T01:47:49;1.60;;;1.40;;
18568;SDS011;14780;48.316;-1.050;2023-11-21T01:50:34;1.75;;;1.17;;
18568;SDS011;14780;48.316;-1.050;2023-11-21T01:53:19;2.90;;;1.08;;
18568;SDS011;14780;48.316;-1.050;2023-11-21T01:56:04;1.55;;;1.17;;
18568;SDS011;14780;48.316;-1.050;2023-11-21T01:58:51;2.13;;;1.20;;
18568;SDS011;14780;48.316;-1.050;2023-11-21T02:01:37;1.92;;;1.15;;
18568;SDS011;14780;48.316;-1.050;2023-11-21T02:04:22;2.92;;;1.20;;
18568;SDS011;14780;48.316;-1.050;2023-11-21T02:07:07;3.03;;;1.38;;
18568;SDS011;14780;48.316;-1.050;2023-11-21T02:09:52;2.72;;;1.42;;
18568;SDS011;14780;48.316;-1.050;2023-11-21T02:12:36;1.25;;;1.05;;
18568;SDS011;14780;48.316;-1.050;2023-11-21T02:15:22;2.10;;;1.25;;
18568;SDS011;14780;48.316;-1.050;2023-11-21T02:18:10;2.50;;;1.20;;
18568;SDS011;14780;48.316;-1.050;2023-11-21T02:20:55;1.77;;;1.23;;
18568;SDS011;14780;48.316;-1.050;2023-11-21T02:23:40;2.00;;;0.98;;
18568;SDS011;14780;48.316;-1.050;2023-11-21T02:26:27;1.23;;;0.85;;
18568;SDS011;14780;48.316;-1.050;2023-11-21T02:29:14;1.58;;;1.05;;
18568;SDS011;14780;48.316;-1.050;2023-11-21T02:32:02;1.77;;;1.02;;
18568;SDS011;14780;48.316;-1.050;2023-11-21T02:34:47;1.20;;;1.10;;
18568;SDS011;14780;48.316;-1.050;2023-11-21T02:37:32;1.37;;;1.17;;
18568;SDS011;14780;48.316;-1.050;2023-11-21T02:40:17;2.80;;;1.20;;
18568;SDS011;14780;48.316;-1.050;2023-11-21T02:43:03;1.25;;;1.02;;
18568;SDS011;14780;48.316;-1.050;2023-11-21T02:45:49;1.77;;;1.10;;
18568;SDS011;14780;48.316;-1.050;2023-11-21T02:48:34;1.42;;;1.10;;
18568;SDS011;14780;48.316;-1.050;2023-11-21T02:51:19;1.63;;;1.02;;
18568;SDS011;14780;48.316;-1.050;2023-11-21T02:54:05;1.53;;;1.30;;
18568;SDS011;14780;48.316;-1.050;2023-11-21T02:56:51;2.65;;;1.45;;
18568;SDS011;14780;48.316;-1.050;2023-11-21T02:59:36;1.33;;;1.02;;
18568;SDS011;14780;48.316;-1.050;2023-11-21T03:02:21;2.83;;;1.30;;
18568;SDS011;14780;48.316;-1.050;2023-11-21T03:05:06;4.30;;;1.65;;
18568;SDS011;14780;48.316;-1.050;2023-11-21T03:07:54;1.65;;;0.93;;
18568;SDS011;14780;48.316;-1.050;2023-11-21T03:10:39;1.40;;;1.00;;
18568;SDS011;14780;48.316;-1.050;2023-11-21T03:13:23;2.55;;;1.42;;
18568;SDS011;14780;48.316;-1.050;2023-11-21T03:16:08;1.52;;;1.20;;
18568;SDS011;14780;48.316;-1.050;2023-11-21T03:18:57;4.23;;;1.33;;
18568;SDS011;14780;48.316;-1.050;2023-11-21T03:21:42;1.45;;;1.00;;
18568;SDS011;14780;48.316;-1.050;2023-11-21T03:24:26;1.40;;;0.80;;
18568;SDS011;14780;48.316;-1.050;2023-11-21T03:27:11;1.57;;;0.90;;
18568;SDS011;14780;48.316;-1.050;2023-11-21T03:29:56;1.83;;;1.15;;
18568;SDS011;14780;48.316;-1.050;2023-11-21T03:32:41;2.17;;;1.30;;
18568;SDS011;14780;48.316;-1.050;2023-11-21T03:35:25;1.83;;;0.93;;
18568;SDS011;14780;48.316;-1.050;2023-11-21T03:38:10;1.10;;;1.00;;
18568;SDS011;14780;48.316;-1.050;2023-11-21T03:40:56;1.50;;;1.00;;
18568;SDS011;14780;48.316;-1.050;2023-11-21T03:43:40;1.23;;;0.90;;
18568;SDS011;14780;48.316;-1.050;2023-11-21T03:46:25;1.37;;;0.90;;
18568;SDS011;14780;48.316;-1.050;2023-11-21T03:49:09;1.30;;;1.05;;
18568;SDS011;14780;48.316;-1.050;2023-11-21T03:51:55;2.60;;;1.20;;
18568;SDS011;14780;48.316;-1.050;2023-11-21T03:54:40;1.92;;;1.02;;
18568;SDS011;14780;48.316;-1.050;2023-11-21T03:57:26;1.42;;;1.05;;
18568;SDS011;14780;48.316;-1.050;2023-11-21T04:00:11;1.50;;;1.10;;
18568;SDS011;14780;48.316;-1.050;2023-11-21T04:02:56;1.90;;;1.00;;
18568;SDS011;14780;48.316;-1.050;2023-11-21T04:05:42;1.77;;;1.10;;
18568;SDS011;14780;48.316;-1.050;2023-11-21T04:08:26;1.25;;;0.85;;
18568;SDS011;14780;48.316;-1.050;2023-11-21T04:11:11;1.48;;;1.15;;
18568;SDS011;14780;48.316;-1.050;2023-11-21T04:13:56;1.40;;;0.98;;
18568;SDS011;14780;48.316;-1.050;2023-11-21T04:16:41;1.25;;;0.90;;
18568;SDS011;14780;48.316;-1.050;2023-11-21T04:19:25;2.15;;;1.15;;
18568;SDS011;14780;48.316;-1.050;2023-11-21T04:22:10;0.85;;;0.80;;
18568;SDS011;14780;48.316;-1.050;2023-11-21T04:24:54;1.52;;;0.85;;
18568;SDS011;14780;48.316;-1.050;2023-11-21T04:27:40;1.60;;;1.10;;
18568;SDS011;14780;48.316;-1.050;2023-11-21T04:30:27;1.05;;;0.90;;
18568;SDS011;14780;48.316;-1.050;2023-11-21T04:33:11;1.63;;;1.00;;
18568;SDS011;14780;48.316;-1.050;2023-11-21T04:35:56;1.63;;;0.90;;
18568;SDS011;14780;48.316;-1.050;2023-11-21T04:38:41;1.25;;;1.00;;
18568;SDS011;14780;48.316;-1.050;2023-11-21T04:41:25;2.30;;;1.20;;
18568;SDS011;14780;48.316;-1.050;2023-11-21T04:44:10;1.40;;;0.98;;
18568;SDS011;14780;48.316;-1.050;2023-11-21T04:46:55;1.30;;;0.90;;
18568;SDS011;14780;48.316;-1.050;2023-11-21T04:49:43;1.00;;;0.85;;
18568;SDS011;14780;48.316;-1.050;2023-11-21T04:52:30;1.33;;;0.75;;
18568;SDS011;14780;48.316;-1.050;2023-11-21T04:55:16;1.70;;;0.90;;
18568;SDS011;14780;48.316;-1.050;2023-11-21T04:58:01;1.25;;;0.90;;
18568;SDS011;14780;48.316;-1.050;2023-11-21T05:00:47;0.95;;;0.85;;
18568;SDS011;14780;48.316;-1.050;2023-11-21T05:03:33;1.38;;;1.10;;
18568;SDS011;14780;48.316;-1.050;2023-11-21T05:06:18;1.20;;;0.90;;
18568;SDS011;14780;48.316;-1.050;2023-11-21T05:09:03;1.13;;;0.90;;
18568;SDS011;14780;48.316;-1.050;2023-11-21T05:11:48;1.83;;;0.90;;
18568;SDS011;14780;48.316;-1.050;2023-11-21T05:14:33;2.78;;;1.00;;
18568;SDS011;14780;48.316;-1.050;2023-11-21T05:17:18;1.23;;;0.93;;
18568;SDS011;14780;48.316;-1.050;2023-11-21T05:20:03;1.60;;;1.00;;
18568;SDS011;14780;48.316;-1.050;2023-11-21T05:22:49;1.05;;;0.80;;
18568;SDS011;14780;48.316;-1.050;2023-11-21T05:25:34;1.15;;;0.85;;
18568;SDS011;14780;48.316;-1.050;2023-11-21T05:28:18;1.27;;;0.80;;
18568;SDS011;14780;48.316;-1.050;2023-11-21T05:31:03;1.40;;;0.95;;
18568;SDS011;14780;48.316;-1.050;2023-11-21T05:33:47;1.40;;;1.17;;
18568;SDS011;14780;48.316;-1.050;2023-11-21T05:36:32;1.27;;;0.90;;
18568;SDS011;14780;48.316;-1.050;2023-11-21T05:39:17;1.00;;;0.80;;
18568;SDS011;14780;48.316;-1.050;2023-11-21T05:42:03;0.85;;;0.85;;
18568;SDS011;14780;48.316;-1.050;2023-11-21T05:44:48;0.77;;;0.75;;
18568;SDS011;14780;48.316;-1.050;2023-11-21T05:47:33;0.95;;;0.80;;
18568;SDS011;14780;48.316;-1.050;2023-11-21T05:50:19;1.27;;;0.90;;
18568;SDS011;14780;48.316;-1.050;2023-11-21T05:53:03;0.90;;;0.85;;
18568;SDS011;14780;48.316;-1.050;2023-11-21T05:55:48;1.05;;;0.88;;
18568;SDS011;14780;48.316;-1.050;2023-11-21T05:58:32;1.05;;;0.90;;
18568;SDS011;14780;48.316;-1.050;2023-11-21T06:01:17;0.90;;;0.70;;
18568;SDS011;14780;48.316;-1.050;2023-11-21T06:04:02;1.33;;;1.00;;
18568;SDS011;14780;48.316;-1.050;2023-11-21T06:06:47;2.00;;;1.17;;
18568;SDS011;14780;48.316;-1.050;2023-11-21T06:09:32;1.17;;;0.95;;
18568;SDS011;14780;48.316;-1.050;2023-11-21T06:12:18;1.80;;;1.10;;
18568;SDS011;14780;48.316;-1.050;2023-11-21T06:15:04;2.20;;;1.00;;
18568;SDS011;14780;48.316;-1.050;2023-11-21T06:17:52;1.38;;;1.08;;
18568;SDS011;14780;48.316;-1.050;2023-11-21T06:20:37;1.00;;;0.90;;
18568;SDS011;14780;48.316;-1.050;2023-11-21T06:23:21;1.02;;;0.80;;
18568;SDS011;14780;48.316;-1.050;2023-11-21T06:26:06;0.97;;;0.90;;
18568;SDS011;14780;48.316;-1.050;2023-11-21T06:28:52;1.33;;;1.00;;
18568;SDS011;14780;48.316;-1.050;2023-11-21T06:31:37;0.75;;;0.75;;
18568;SDS011;14780;48.316;-1.050;2023-11-21T06:34:23;1.70;;;0.90;;
18568;SDS011;14780;48.316;-1.050;2023-11-21T06:37:08;1.27;;;0.98;;
18568;SDS011;14780;48.316;-1.050;2023-11-21T06:39:53;2.60;;;1.08;;
18568;SDS011;14780;48.316;-1.050;2023-11-21T06:42:40;0.88;;;0.85;;
18568;SDS011;14780;48.316;-1.050;2023-11-21T06:45:24;1.00;;;0.90;;
18568;SDS011;14780;48.316;-1.050;2023-11-21T06:48:10;1.27;;;1.10;;
18568;SDS011;14780;48.316;-1.050;2023-11-21T06:50:54;1.73;;;0.93;;
18568;SDS011;14780;48.316;-1.050;2023-11-21T06:53:39;1.60;;;1.13;;
18568;SDS011;14780;48.316;-1.050;2023-11-21T06:56:24;1.33;;;0.93;;
18568;SDS011;14780;48.316;-1.050;2023-11-21T06:59:09;2.13;;;1.00;;
18568;SDS011;14780;48.316;-1.050;2023-11-21T07:01:54;1.67;;;0.73;;
18568;SDS011;14780;48.316;-1.050;2023-11-21T07:04:38;1.45;;;0.70;;
18568;SDS011;14780;48.316;-1.050;2023-11-21T07:07:23;1.15;;;0.80;;
18568;SDS011;14780;48.316;-1.050;2023-11-21T07:10:08;2.50;;;1.10;;
18568;SDS011;14780;48.316;-1.050;2023-11-21T07:12:53;1.98;;;1.10;;
18568;SDS011;14780;48.316;-1.050;2023-11-21T07:15:38;1.42;;;0.85;;
18568;SDS011;14780;48.316;-1.050;2023-11-21T07:18:22;2.13;;;1.08;;
18568;SDS011;14780;48.316;-1.050;2023-11-21T07:21:07;1.48;;;0.98;;
18568;SDS011;14780;48.316;-1.050;2023-11-21T07:23:52;1.75;;;0.80;;
18568;SDS011;14780;48.316;-1.050;2023-11-21T07:26:37;3.33;;;1.23;;
18568;SDS011;14780;48.316;-1.050;2023-11-21T07:29:23;3.27;;;1.20;;
18568;SDS011;14780;48.316;-1.050;2023-11-21T07:32:09;2.15;;;1.00;;
18568;SDS011;14780;48.316;-1.050;2023-11-21T07:34:54;2.10;;;1.00;;
18568;SDS011;14780;48.316;-1.050;2023-11-21T07:37:40;2.30;;;1.15;;
18568;SDS011;14780;48.316;-1.050;2023-11-21T07:40:26;1.27;;;0.90;;
18568;SDS011;14780;48.316;-1.050;2023-11-21T07:43:11;2.85;;;1.30;;
18568;SDS011;14780;48.316;-1.050;2023-11-21T07:45:56;1.73;;;0.90;;
18568;SDS011;14780;48.316;-1.050;2023-11-21T07:48:42;2.90;;;1.20;;
18568;SDS011;14780;48.316;-1.050;2023-11-21T07:51:27;3.93;;;1.20;;
18568;SDS011;14780;48.316;-1.050;2023-11-21T07:54:12;3.08;;;1.30;;
18568;SDS011;14780;48.316;-1.050;2023-11-21T07:56:56;4.43;;;1.40;;
18568;SDS011;14780;48.316;-1.050;2023-11-21T07:59:41;2.90;;;1.33;;
18568;SDS011;14780;48.316;-1.050;2023-11-21T08:02:26;3.70;;;1.20;;
18568;SDS011;14780;48.316;-1.050;2023-11-21T08:05:11;2.07;;;1.23;;
18568;SDS011;14780;48.316;-1.050;2023-11-21T08:07:56;3.83;;;1.48;;
18568;SDS011;14780;48.316;-1.050;2023-11-21T08:10:41;5.70;;;1.65;;
18568;SDS011;14780;48.316;-1.050;2023-11-21T08:13:26;3.70;;;1.10;;
18568;SDS011;14780;48.316;-1.050;2023-11-21T08:16:12;4.32;;;1.73;;
18568;SDS011;14780;48.316;-1.050;2023-11-21T08:18:57;3.58;;;1.30;;
18568;SDS011;14780;48.316;-1.050;2023-11-21T08:21:42;1.83;;;1.30;;
18568;SDS011;14780;48.316;-1.050;2023-11-21T08:24:26;4.53;;;1.65;;
18568;SDS011;14780;48.316;-1.050;2023-11-21T08:27:11;4.38;;;1.40;;
18568;SDS011;14780;48.316;-1.050;2023-11-21T08:29:59;5.13;;;1.50;;
18568;SDS011;14780;48.316;-1.050;2023-11-21T08:32:44;3.75;;;1.48;;
18568;SDS011;14780;48.316;-1.050;2023-11-21T08:35:29;5.22;;;1.23;;
18568;SDS011;14780;48.316;-1.050;2023-11-21T08:38:14;3.65;;;1.33;;
18568;SDS011;14780;48.316;-1.050;2023-11-21T08:41:00;2.70;;;1.20;;
18568;SDS011;14780;48.316;-1.050;2023-11-21T08:43:44;3.38;;;1.50;;
18568;SDS011;14780;48.316;-1.050;2023-11-21T08:46:31;2.17;;;1.20;;
18568;SDS011;14780;48.316;-1.050;2023-11-21T08:49:17;3.50;;;1.40;;
18568;SDS011;14780;48.316;-1.050;2023-11-21T08:52:02;2.80;;;1.52;;
18568;SDS011;14780;48.316;-1.050;2023-11-21T08:54:48;4.30;;;1.33;;
18568;SDS011;14780;48.316;-1.050;2023-11-21T08:57:40;2.55;;;1.20;;
18568;SDS011;14780;48.316;-1.050;2023-11-21T09:00:26;2.15;;;1.13;;
18568;SDS011;14780;48.316;-1.050;2023-11-21T09:03:12;3.13;;;1.40;;
18568;SDS011;14780;48.316;-1.050;2023-11-21T09:05:57;4.53;;;1.67;;
18568;SDS011;14780;48.316;-1.050;2023-11-21T09:08:43;2.85;;;1.27;;
18568;SDS011;14780;48.316;-1.050;2023-11-21T09:11:29;2.72;;;1.30;;
18568;SDS011;14780;48.316;-1.050;2023-11-21T09:14:17;2.90;;;1.40;;
18568;SDS011;14780;48.316;-1.050;2023-11-21T09:17:02;2.17;;;1.30;;
18568;SDS011;14780;48.316;-1.050;2023-11-21T09:19:46;2.90;;;1.20;;
18568;SDS011;14780;48.316;-1.050;2023-11-21T09:22:34;2.70;;;1.33;;
18568;SDS011;14780;48.316;-1.050;2023-11-21T09:25:20;5.18;;;1.52;;
18568;SDS011;14780;48.316;-1.050;2023-11-21T09:28:06;2.17;;;1.20;;
18568;SDS011;14780;48.316;-1.050;2023-11-21T09:30:51;2.67;;;1.30;;
18568;SDS011;14780;48.316;-1.050;2023-11-21T09:33:37;4.88;;;1.70;;
18568;SDS011;14780;48.316;-1.050;2023-11-21T09:36:22;2.63;;;1.10;;
18568;SDS011;14780;48.316;-1.050;2023-11-21T09:39:11;2.92;;;1.33;;
18568;SDS011;14780;48.316;-1.050;2023-11-21T09:41:59;1.85;;;1.17;;
18568;SDS011;14780;48.316;-1.050;2023-11-21T09:45:05;3.40;;;1.30;;
18568;SDS011;14780;48.316;-1.050;2023-11-21T09:47:59;4.18;;;1.25;;
18568;SDS011;14780;48.316;-1.050;2023-11-21T09:50:44;4.40;;;1.50;;
18568;SDS011;14780;48.316;-1.050;2023-11-21T09:53:31;4.60;;;1.52;;
18568;SDS011;14780;48.316;-1.050;2023-11-21T09:56:17;1.20;;;0.98;;
18568;SDS011;14780;48.316;-1.050;2023-11-21T09:59:07;1.60;;;1.20;;
18568;SDS011;14780;48.316;-1.050;2023-11-21T10:01:57;1.80;;;1.23;;
18568;SDS011;14780;48.316;-1.050;2023-11-21T10:04:42;1.70;;;1.00;;
18568;SDS011;14780;48.316;-1.050;2023-11-21T10:07:26;1.60;;;1.20;;
18568;SDS011;14780;48.316;-1.050;2023-11-21T10:10:12;2.27;;;1.30;;
18568;SDS011;14780;48.316;-1.050;2023-11-21T10:13:02;2.05;;;1.10;;
18568;SDS011;14780;48.316;-1.050;2023-11-21T10:15:51;2.47;;;1.20;;
18568;SDS011;14780;48.316;-1.050;2023-11-21T10:18:36;2.40;;;1.35;;
18568;SDS011;14780;48.316;-1.050;2023-11-21T10:21:24;2.28;;;1.35;;
18568;SDS011;14780;48.316;-1.050;2023-11-21T10:24:09;1.80;;;1.13;;
18568;SDS011;14780;48.316;-1.050;2023-11-21T10:26:56;1.50;;;1.02;;
18568;SDS011;14780;48.316;-1.050;2023-11-21T10:29:41;1.42;;;1.00;;
18568;SDS011;14780;48.316;-1.050;2023-11-21T10:32:28;1.85;;;0.82;;
18568;SDS011;14780;48.316;-1.050;2023-11-21T10:35:15;2.10;;;1.10;;
18568;SDS011;14780;48.316;-1.050;2023-11-21T10:38:00;2.17;;;0.90;;
18568;SDS011;14780;48.316;-1.050;2023-11-21T10:40:46;1.52;;;0.90;;
18568;SDS011;14780;48.316;-1.050;2023-11-21T10:43:33;1.00;;;0.73;;
18568;SDS011;14780;48.316;-1.050;2023-11-21T10:46:17;1.13;;;0.90;;
18568;SDS011;14780;48.316;-1.050;2023-11-21T10:49:03;1.38;;;0.90;;
18568;SDS011;14780;48.316;-1.050;2023-11-21T10:51:48;2.05;;;0.90;;
18568;SDS011;14780;48.316;-1.050;2023-11-21T10:54:35;1.50;;;1.17;;
18568;SDS011;14780;48.316;-1.050;2023-11-21T10:57:21;2.75;;;1.45;;
18568;SDS011;14780;48.316;-1.050;2023-11-21T11:00:07;2.20;;;1.40;;
18568;SDS011;14780;48.316;-1.050;2023-11-21T11:02:56;4.20;;;1.52;;
18568;SDS011;14780;48.316;-1.050;2023-11-21T11:05:43;4.20;;;1.08;;
18568;SDS011;14780;48.316;-1.050;2023-11-21T11:08:34;1.35;;;0.80;;
18568;SDS011;14780;48.316;-1.050;2023-11-21T11:11:21;5.35;;;1.85;;
18568;SDS011;14780;48.316;-1.050;2023-11-21T11:14:09;7.70;;;2.33;;
18568;SDS011;14780;48.316;-1.050;2023-11-21T11:16:56;7.97;;;2.07;;
18568;SDS011;14780;48.316;-1.050;2023-11-21T11:19:44;8.25;;;2.42;;
18568;SDS011;14780;48.316;-1.050;2023-11-21T11:34:59;5.90;;;1.90;;
18568;SDS011;14780;48.316;-1.050;2023-11-21T11:38:01;5.13;;;2.00;;
18568;SDS011;14780;48.316;-1.050;2023-11-21T11:40:46;5.60;;;1.83;;
18568;SDS011;14780;48.316;-1.050;2023-11-21T11:43:35;4.78;;;1.85;;
18568;SDS011;14780;48.316;-1.050;2023-11-21T11:46:40;4.75;;;1.70;;
18568;SDS011;14780;48.316;-1.050;2023-11-21T11:49:29;6.72;;;2.08;;
18568;SDS011;14780;48.316;-1.050;2023-11-21T11:52:35;8.15;;;2.15;;
18568;SDS011;14780;48.316;-1.050;2023-11-21T11:55:23;7.93;;;2.30;;
18568;SDS011;14780;48.316;-1.050;2023-11-21T11:58:08;5.45;;;1.88;;
18568;SDS011;14780;48.316;-1.050;2023-11-21T12:00:55;5.67;;;1.90;;
18568;SDS011;14780;48.316;-1.050;2023-11-21T12:03:42;7.80;;;1.95;;
18568;SDS011;14780;48.316;-1.050;2023-11-21T12:06:32;6.45;;;2.30;;
18568;SDS011;14780;48.316;-1.050;2023-11-21T12:09:19;4.35;;;1.52;;
18568;SDS011;14780;48.316;-1.050;2023-11-21T12:12:05;4.40;;;1.85;;
18568;SDS011;14780;48.316;-1.050;2023-11-21T12:14:50;4.25;;;2.00;;
18568;SDS011;14780;48.316;-1.050;2023-11-21T12:17:35;5.70;;;1.77;;
18568;SDS011;14780;48.316;-1.050;2023-11-21T12:20:20;4.45;;;1.70;;
18568;SDS011;14780;48.316;-1.050;2023-11-21T12:23:05;6.20;;;2.10;;
18568;SDS011;14780;48.316;-1.050;2023-11-21T12:25:52;5.57;;;1.70;;
18568;SDS011;14780;48.316;-1.050;2023-11-21T12:28:37;3.08;;;1.58;;
18568;SDS011;14780;48.316;-1.050;2023-11-21T12:31:23;4.72;;;1.80;;
18568;SDS011;14780;48.316;-1.050;2023-11-21T12:34:08;4.32;;;2.00;;
18568;SDS011;14780;48.316;-1.050;2023-11-21T12:36:55;4.00;;;1.45;;
18568;SDS011;14780;48.316;-1.050;2023-11-21T12:39:40;3.92;;;1.70;;
18568;SDS011;14780;48.316;-1.050;2023-11-21T12:42:24;3.28;;;1.50;;
18568;SDS011;14780;48.316;-1.050;2023-11-21T12:48:01;2.17;;;1.20;;
18568;SDS011;14780;48.316;-1.050;2023-11-21T12:50:51;1.90;;;1.00;;
18568;SDS011;14780;48.316;-1.050;2023-11-21T12:53:37;2.10;;;1.13;;
18568;SDS011;14780;48.316;-1.050;2023-11-21T12:56:22;2.50;;;1.20;;
18568;SDS011;14780;48.316;-1.050;2023-11-21T12:59:07;4.07;;;1.60;;
18568;SDS011;14780;48.316;-1.050;2023-11-21T13:01:57;3.22;;;1.52;;
18568;SDS011;14780;48.316;-1.050;2023-11-21T13:04:51;2.33;;;1.40;;
18568;SDS011;14780;48.316;-1.050;2023-11-21T13:07:41;1.60;;;1.27;;
18568;SDS011;14780;48.316;-1.050;2023-11-21T13:10:31;1.87;;;1.30;;
18568;SDS011;14780;48.316;-1.050;2023-11-21T13:13:17;2.80;;;1.40;;
18568;SDS011;14780;48.316;-1.050;2023-11-21T13:16:02;2.27;;;1.30;;
18568;SDS011;14780;48.316;-1.050;2023-11-21T13:18:48;2.03;;;0.98;;
18568;SDS011;14780;48.316;-1.050;2023-11-21T13:21:32;1.42;;;1.10;;
18568;SDS011;14780;48.316;-1.050;2023-11-21T13:24:18;2.70;;;1.20;;
18568;SDS011;14780;48.316;-1.050;2023-11-21T13:27:03;2.40;;;1.10;;
18568;SDS011;14780;48.316;-1.050;2023-11-21T13:29:48;2.33;;;1.37;;
18568;SDS011;14780;48.316;-1.050;2023-11-21T13:32:33;1.10;;;1.00;;
18568;SDS011;14780;48.316;-1.050;2023-11-21T13:35:18;2.13;;;1.00;;
18568;SDS011;14780;48.316;-1.050;2023-11-21T13:38:14;2.50;;;1.38;;
18568;SDS011;14780;48.316;-1.050;2023-11-21T13:41:00;2.08;;;1.10;;
18568;SDS011;14780;48.316;-1.050;2023-11-21T13:43:46;1.50;;;1.13;;
18568;SDS011;14780;48.316;-1.050;2023-11-21T13:46:42;3.08;;;1.00;;
18568;SDS011;14780;48.316;-1.050;2023-11-21T13:49:27;1.40;;;1.00;;
18568;SDS011;14780;48.316;-1.050;2023-11-21T13:52:15;1.20;;;0.80;;
18568;SDS011;14780;48.316;-1.050;2023-11-21T13:55:02;1.38;;;0.95;;
18568;SDS011;14780;48.316;-1.050;2023-11-21T13:57:50;2.45;;;1.30;;
18568;SDS011;14780;48.316;-1.050;2023-11-21T14:00:36;1.42;;;1.10;;
18568;SDS011;14780;48.316;-1.050;2023-11-21T14:03:30;1.43;;;0.83;;
18568;SDS011;14780;48.316;-1.050;2023-11-21T14:06:28;2.20;;;1.15;;
18568;SDS011;14780;48.316;-1.050;2023-11-21T14:09:19;1.23;;;1.00;;
18568;SDS011;14780;48.316;-1.050;2023-11-21T14:12:08;2.83;;;1.05;;
18568;SDS011;14780;48.316;-1.050;2023-11-21T14:14:56;1.30;;;1.03;;
18568;SDS011;14780;48.316;-1.050;2023-11-21T14:17:41;1.98;;;0.98;;
18568;SDS011;14780;48.316;-1.050;2023-11-21T14:20:26;2.33;;;1.05;;
18568;SDS011;14780;48.316;-1.050;2023-11-21T14:23:11;2.38;;;1.13;;
18568;SDS011;14780;48.316;-1.050;2023-11-21T14:25:56;2.20;;;1.20;;
18568;SDS011;14780;48.316;-1.050;2023-11-21T14:28:42;2.90;;;1.70;;
18568;SDS011;14780;48.316;-1.050;2023-11-21T14:31:26;2.60;;;1.45;;
18568;SDS011;14780;48.316;-1.050;2023-11-21T14:34:13;2.57;;;1.10;;
18568;SDS011;14780;48.316;-1.050;2023-11-21T14:36:59;1.85;;;0.95;;
18568;SDS011;14780;48.316;-1.050;2023-11-21T14:39:46;1.45;;;1.05;;
18568;SDS011;14780;48.316;-1.050;2023-11-21T14:42:33;1.95;;;1.25;;
18568;SDS011;14780;48.316;-1.050;2023-11-21T14:45:20;1.65;;;1.05;;
18568;SDS011;14780;48.316;-1.050;2023-11-21T14:48:07;1.67;;;0.98;;
18568;SDS011;14780;48.316;-1.050;2023-11-21T14:50:59;2.05;;;1.30;;
18568;SDS011;14780;48.316;-1.050;2023-11-21T14:53:47;1.90;;;1.03;;
18568;SDS011;14780;48.316;-1.050;2023-11-21T14:56:43;2.38;;;1.20;;
18568;SDS011;14780;48.316;-1.050;2023-11-21T14:59:29;2.40;;;1.08;;
18568;SDS011;14780;48.316;-1.050;2023-11-21T15:02:16;2.92;;;1.20;;
18568;SDS011;14780;48.316;-1.050;2023-11-21T15:05:26;1.58;;;1.10;;
18568;SDS011;14780;48.316;-1.050;2023-11-21T15:08:12;4.07;;;1.13;;
18568;SDS011;14780;48.316;-1.050;2023-11-21T15:11:07;3.17;;;1.47;;
18568;SDS011;14780;48.316;-1.050;2023-11-21T15:13:58;3.53;;;1.40;;
18568;SDS011;14780;48.316;-1.050;2023-11-21T15:16:44;3.13;;;1.42;;
18568;SDS011;14780;48.316;-1.050;2023-11-21T15:19:34;2.53;;;1.35;;
18568;SDS011;14780;48.316;-1.050;2023-11-21T15:22:19;3.50;;;1.30;;
18568;SDS011;14780;48.316;-1.050;2023-11-21T15:25:05;4.28;;;1.42;;
18568;SDS011;14780;48.316;-1.050;2023-11-21T15:27:53;3.05;;;1.20;;
18568;SDS011;14780;48.316;-1.050;2023-11-21T15:30:38;5.60;;;1.50;;
18568;SDS011;14780;48.316;-1.050;2023-11-21T15:33:23;3.03;;;1.50;;
18568;SDS011;14780;48.316;-1.050;2023-11-21T15:36:10;4.90;;;1.50;;
18568;SDS011;14780;48.316;-1.050;2023-11-21T15:38:57;3.88;;;1.30;;
18568;SDS011;14780;48.316;-1.050;2023-11-21T15:41:41;4.77;;;1.60;;
18568;SDS011;14780;48.316;-1.050;2023-11-21T15:44:26;2.80;;;1.40;;
18568;SDS011;14780;48.316;-1.050;2023-11-21T15:47:12;4.53;;;1.40;;
18568;SDS011;14780;48.316;-1.050;2023-11-21T15:49:57;1.85;;;1.40;;
18568;SDS011;14780;48.316;-1.050;2023-11-21T15:52:42;4.35;;;1.52;;
18568;SDS011;14780;48.316;-1.050;2023-11-21T15:55:27;2.20;;;1.23;;
18568;SDS011;14780;48.316;-1.050;2023-11-21T15:58:12;5.43;;;1.20;;
18568;SDS011;14780;48.316;-1.050;2023-11-21T16:00:57;3.63;;;1.42;;
18568;SDS011;14780;48.316;-1.050;2023-11-21T16:03:42;3.67;;;1.17;;
18568;SDS011;14780;48.316;-1.050;2023-11-21T16:06:30;2.15;;;1.27;;
18568;SDS011;14780;48.316;-1.050;2023-11-21T16:09:15;13.30;;;1.45;;
18568;SDS011;14780;48.316;-1.050;2023-11-21T16:12:07;2.15;;;1.08;;
18568;SDS011;14780;48.316;-1.050;2023-11-21T16:14:52;2.47;;;1.25;;
18568;SDS011;14780;48.316;-1.050;2023-11-21T16:17:37;1.38;;;1.00;;
18568;SDS011;14780;48.316;-1.050;2023-11-21T16:20:22;2.57;;;1.37;;
18568;SDS011;14780;48.316;-1.050;2023-11-21T16:23:09;1.55;;;1.02;;
18568;SDS011;14780;48.316;-1.050;2023-11-21T16:25:54;1.67;;;1.13;;
18568;SDS011;14780;48.316;-1.050;2023-11-21T16:28:40;2.83;;;1.20;;
18568;SDS011;14780;48.316;-1.050;2023-11-21T16:31:25;3.65;;;1.33;;
18568;SDS011;14780;48.316;-1.050;2023-11-21T16:34:13;3.83;;;1.33;;
18568;SDS011;14780;48.316;-1.050;2023-11-21T16:37:00;1.33;;;1.00;;
18568;SDS011;14780;48.316;-1.050;2023-11-21T16:39:44;5.70;;;1.30;;